sensor_id;sensor_type;location;lat;lon;timestamp;pressure;altitude;pressure_sealevel;temperature;humidity
18533;BME280;9396;51.510;11.934;2023-06-14T00:01:11;100509.75;;;16.36;74.07
18533;BME280;9396;51.510;11.934;2023-06-14T00:03:38;100514.84;;;16.46;74.38
18533;BME280;9396;51.510;11.934;2023-06-14T00:06:05;100510.88;;;16.27;74.58
18533;BME280;9396;51.510;11.934;2023-06-14T00:08:33;100516.38;;;16.19;74.69
18533;BME280;9396;51.510;11.934;2023-06-14T00:11:00;100515.19;;;15.92;75.42
18533;BME280;9396;51.510;11.934;2023-06-14T00:13:26;100516.84;;;15.93;75.59
18533;BME280;9396;51.510;11.934;2023-06-14T00:15:53;100516.47;;;15.82;75.92
18533;BME280;9396;51.510;11.934;2023-06-14T00:18:21;100523.03;;;15.94;75.81
18533;BME280;9396;51.510;11.934;2023-06-14T00:20:50;100515.38;;;15.91;75.87
18533;BME280;9396;51.510;11.934;2023-06-14T00:23:17;100469.19;;;15.81;75.60
18533;BME280;9396;51.510;11.934;2023-06-14T00:25:45;100519.97;;;15.82;76.52
18533;BME280;9396;51.510;11.934;2023-06-14T00:28:12;100523.97;;;16.01;76.22
18533;BME280;9396;51.510;11.934;2023-06-14T00:30:39;100396.97;;;15.36;75.87
18533;BME280;9396;51.510;11.934;2023-06-14T00:33:06;100511.91;;;15.82;76.32
18533;BME280;9396;51.510;11.934;2023-06-14T00:35:32;100526.03;;;15.47;77.42
18533;BME280;9396;51.510;11.934;2023-06-14T00:37:59;100516.25;;;15.54;77.16
18533;BME280;9396;51.510;11.934;2023-06-14T00:40:26;100521.28;;;15.57;77.30
18533;BME280;9396;51.510;11.934;2023-06-14T00:42:54;100521.81;;;15.67;77.26
18533;BME280;9396;51.510;11.934;2023-06-14T00:45:21;100517.47;;;15.81;76.82
18533;BME280;9396;51.510;11.934;2023-06-14T00:47:50;100512.94;;;15.67;77.16
18533;BME280;9396;51.510;11.934;2023-06-14T00:50:19;100515.44;;;15.83;76.64
18533;BME280;9396;51.510;11.934;2023-06-14T00:52:46;100508.88;;;15.85;76.65
18533;BME280;9396;51.510;11.934;2023-06-14T00:55:13;100517.78;;;15.86;76.54
18533;BME280;9396;51.510;11.934;2023-06-14T00:57:40;100520.94;;;15.89;76.60
18533;BME280;9396;51.510;11.934;2023-06-14T01:00:09;100520.81;;;15.83;77.02
18533;BME280;9396;51.510;11.934;2023-06-14T01:02:39;100524.69;;;15.66;77.14
18533;BME280;9396;51.510;11.934;2023-06-14T01:05:06;100513.41;;;15.70;77.11
18533;BME280;9396;51.510;11.934;2023-06-14T01:07:43;100520.34;;;15.79;77.32
18533;BME280;9396;51.510;11.934;2023-06-14T01:10:23;100519.88;;;15.76;77.19
18533;BME280;9396;51.510;11.934;2023-06-14T01:12:59;100525.34;;;15.68;77.46
18533;BME280;9396;51.510;11.934;2023-06-14T01:15:31;100522.53;;;15.61;77.71
18533;BME280;9396;51.510;11.934;2023-06-14T01:17:58;100516.66;;;15.66;77.45
18533;BME280;9396;51.510;11.934;2023-06-14T01:20:29;100500.72;;;15.50;77.65
18533;BME280;9396;51.510;11.934;2023-06-14T01:22:57;100525.03;;;15.63;77.85
18533;BME280;9396;51.510;11.934;2023-06-14T01:25:24;100534.66;;;15.35;78.50
18533;BME280;9396;51.510;11.934;2023-06-14T01:27:55;100515.69;;;15.44;78.16
18533;BME280;9396;51.510;11.934;2023-06-14T01:30:23;100525.56;;;15.44;78.54
18533;BME280;9396;51.510;11.934;2023-06-14T01:32:51;100528.25;;;15.44;78.60
18533;BME280;9396;51.510;11.934;2023-06-14T01:35:18;100521.72;;;15.38;78.67
18533;BME280;9396;51.510;11.934;2023-06-14T01:37:47;100523.59;;;15.38;78.59
18533;BME280;9396;51.510;11.934;2023-06-14T01:40:17;100522.47;;;15.32;78.71
18533;BME280;9396;51.510;11.934;2023-06-14T01:42:46;100518.31;;;15.30;78.95
18533;BME280;9396;51.510;11.934;2023-06-14T01:45:14;100512.56;;;15.18;79.08
18533;BME280;9396;51.510;11.934;2023-06-14T01:47:41;100513.44;;;15.11;79.27
18533;BME280;9396;51.510;11.934;2023-06-14T01:50:10;100511.78;;;15.10;79.18
18533;BME280;9396;51.510;11.934;2023-06-14T01:52:37;100526.41;;;14.99;79.55
18533;BME280;9396;51.510;11.934;2023-06-14T01:55:04;100508.88;;;14.96;79.76
18533;BME280;9396;51.510;11.934;2023-06-14T01:57:32;100505.47;;;15.02;79.67
18533;BME280;9396;51.510;11.934;2023-06-14T01:59:59;100517.50;;;15.07;79.40
18533;BME280;9396;51.510;11.934;2023-06-14T02:02:26;100521.00;;;15.07;79.54
18533;BME280;9396;51.510;11.934;2023-06-14T02:04:52;100523.81;;;14.91;79.91
18533;BME280;9396;51.510;11.934;2023-06-14T02:07:22;100529.66;;;14.72;80.88
18533;BME280;9396;51.510;11.934;2023-06-14T02:09:49;100529.50;;;14.65;81.25
18533;BME280;9396;51.510;11.934;2023-06-14T02:12:16;100540.00;;;14.44;81.58
18533;BME280;9396;51.510;11.934;2023-06-14T02:14:44;100532.28;;;14.49;81.38
18533;BME280;9396;51.510;11.934;2023-06-14T02:17:11;100546.44;;;14.27;82.03
18533;BME280;9396;51.510;11.934;2023-06-14T02:19:37;100545.41;;;14.36;82.38
18533;BME280;9396;51.510;11.934;2023-06-14T02:22:04;100547.75;;;14.31;81.97
18533;BME280;9396;51.510;11.934;2023-06-14T02:24:31;100550.25;;;14.25;82.31
18533;BME280;9396;51.510;11.934;2023-06-14T02:26:57;100544.66;;;14.04;82.98
18533;BME280;9396;51.510;11.934;2023-06-14T02:29:25;100545.78;;;14.17;82.60
18533;BME280;9396;51.510;11.934;2023-06-14T02:31:53;100551.47;;;14.22;82.86
18533;BME280;9396;51.510;11.934;2023-06-14T02:34:20;100549.16;;;14.11;82.62
18533;BME280;9396;51.510;11.934;2023-06-14T02:36:47;100545.09;;;14.23;82.12
18533;BME280;9396;51.510;11.934;2023-06-14T02:39:15;100550.97;;;14.27;82.00
18533;BME280;9396;51.510;11.934;2023-06-14T02:41:41;100550.94;;;14.19;83.09
18533;BME280;9396;51.510;11.934;2023-06-14T02:44:09;100540.75;;;14.22;82.71
18533;BME280;9396;51.510;11.934;2023-06-14T02:46:37;100544.25;;;14.23;82.77
18533;BME280;9396;51.510;11.934;2023-06-14T02:49:05;100544.09;;;14.32;82.58
18533;BME280;9396;51.510;11.934;2023-06-14T02:51:31;100540.06;;;14.36;82.46
18533;BME280;9396;51.510;11.934;2023-06-14T02:53:58;100547.91;;;14.38;82.21
18533;BME280;9396;51.510;11.934;2023-06-14T02:56:24;100546.38;;;14.43;82.15
18533;BME280;9396;51.510;11.934;2023-06-14T02:58:51;100541.84;;;14.44;82.41
18533;BME280;9396;51.510;11.934;2023-06-14T03:01:18;100554.91;;;14.47;82.04
18533;BME280;9396;51.510;11.934;2023-06-14T03:03:46;100550.34;;;14.47;82.11
18533;BME280;9396;51.510;11.934;2023-06-14T03:06:14;100555.00;;;14.53;82.46
18533;BME280;9396;51.510;11.934;2023-06-14T03:08:41;100546.13;;;14.53;82.54
18533;BME280;9396;51.510;11.934;2023-06-14T03:11:09;100551.00;;;14.49;82.45
18533;BME280;9396;51.510;11.934;2023-06-14T03:13:35;100556.25;;;14.43;82.20
18533;BME280;9396;51.510;11.934;2023-06-14T03:16:03;100550.28;;;14.33;82.96
18533;BME280;9396;51.510;11.934;2023-06-14T03:18:30;100561.78;;;14.33;82.73
18533;BME280;9396;51.510;11.934;2023-06-14T03:21:00;100564.66;;;14.32;83.09
18533;BME280;9396;51.510;11.934;2023-06-14T03:23:29;100565.00;;;14.29;83.19
18533;BME280;9396;51.510;11.934;2023-06-14T03:25:56;100560.13;;;14.32;83.15
18533;BME280;9396;51.510;11.934;2023-06-14T03:28:22;100565.47;;;14.24;83.27
18533;BME280;9396;51.510;11.934;2023-06-14T03:30:49;100565.19;;;14.27;82.94
18533;BME280;9396;51.510;11.934;2023-06-14T03:33:16;100559.31;;;14.16;83.70
18533;BME280;9396;51.510;11.934;2023-06-14T03:35:43;100561.81;;;14.17;83.96
18533;BME280;9396;51.510;11.934;2023-06-14T03:38:09;100570.63;;;13.87;84.75
18533;BME280;9396;51.510;11.934;2023-06-14T03:40:37;100571.59;;;13.94;84.33
18533;BME280;9396;51.510;11.934;2023-06-14T03:43:04;100581.63;;;14.00;84.61
18533;BME280;9396;51.510;11.934;2023-06-14T03:45:31;100576.75;;;14.04;84.43
18533;BME280;9396;51.510;11.934;2023-06-14T03:47:57;100587.41;;;14.12;83.99
18533;BME280;9396;51.510;11.934;2023-06-14T03:50:25;100595.25;;;14.21;84.24
18533;BME280;9396;51.510;11.934;2023-06-14T03:52:52;100587.91;;;14.23;84.20
18533;BME280;9396;51.510;11.934;2023-06-14T03:55:19;100597.97;;;14.29;83.66
18533;BME280;9396;51.510;11.934;2023-06-14T03:57:47;100590.94;;;14.20;84.38
18533;BME280;9396;51.510;11.934;2023-06-14T04:00:14;100588.25;;;14.20;84.00
18533;BME280;9396;51.510;11.934;2023-06-14T04:02:41;100598.75;;;14.38;84.11
18533;BME280;9396;51.510;11.934;2023-06-14T04:05:09;100594.09;;;14.32;83.92
18533;BME280;9396;51.510;11.934;2023-06-14T04:07:36;100600.22;;;14.40;84.05
18533;BME280;9396;51.510;11.934;2023-06-14T04:10:06;100605.94;;;14.45;83.58
18533;BME280;9396;51.510;11.934;2023-06-14T04:12:33;100613.06;;;14.53;83.33
18533;BME280;9396;51.510;11.934;2023-06-14T04:15:01;100613.22;;;14.59;82.98
18533;BME280;9396;51.510;11.934;2023-06-14T04:17:28;100615.41;;;14.56;82.88
18533;BME280;9396;51.510;11.934;2023-06-14T04:19:55;100616.22;;;14.56;83.58
18533;BME280;9396;51.510;11.934;2023-06-14T04:22:23;100617.13;;;14.49;83.54
18533;BME280;9396;51.510;11.934;2023-06-14T04:24:54;100621.69;;;14.32;84.43
18533;BME280;9396;51.510;11.934;2023-06-14T04:27:20;100623.50;;;14.40;84.09
18533;BME280;9396;51.510;11.934;2023-06-14T04:29:51;100617.13;;;14.41;84.46
18533;BME280;9396;51.510;11.934;2023-06-14T04:32:23;100621.16;;;14.37;85.29
18533;BME280;9396;51.510;11.934;2023-06-14T04:34:52;100616.63;;;14.45;84.95
18533;BME280;9396;51.510;11.934;2023-06-14T04:37:19;100616.03;;;14.27;84.99
18533;BME280;9396;51.510;11.934;2023-06-14T04:39:46;100623.66;;;14.38;85.49
18533;BME280;9396;51.510;11.934;2023-06-14T04:42:13;100622.84;;;14.38;85.76
18533;BME280;9396;51.510;11.934;2023-06-14T04:44:41;100626.22;;;14.24;85.57
18533;BME280;9396;51.510;11.934;2023-06-14T04:47:08;100620.59;;;14.49;85.68
18533;BME280;9396;51.510;11.934;2023-06-14T04:49:38;100630.63;;;14.55;84.91
18533;BME280;9396;51.510;11.934;2023-06-14T04:52:05;100621.34;;;14.35;85.46
18533;BME280;9396;51.510;11.934;2023-06-14T04:54:32;100623.66;;;14.46;85.82
18533;BME280;9396;51.510;11.934;2023-06-14T04:57:02;100626.63;;;14.51;85.46
18533;BME280;9396;51.510;11.934;2023-06-14T04:59:29;100625.22;;;14.63;85.33
18533;BME280;9396;51.510;11.934;2023-06-14T05:01:58;100625.09;;;14.65;85.17
18533;BME280;9396;51.510;11.934;2023-06-14T05:04:26;100626.19;;;14.40;86.42
18533;BME280;9396;51.510;11.934;2023-06-14T05:06:54;100618.81;;;14.42;86.95
18533;BME280;9396;51.510;11.934;2023-06-14T05:09:22;100618.66;;;14.43;86.41
18533;BME280;9396;51.510;11.934;2023-06-14T05:11:48;100627.44;;;14.60;85.81
18533;BME280;9396;51.510;11.934;2023-06-14T05:14:16;100629.69;;;14.40;85.88
18533;BME280;9396;51.510;11.934;2023-06-14T05:16:42;100626.13;;;14.48;86.57
18533;BME280;9396;51.510;11.934;2023-06-14T05:19:09;100627.78;;;14.57;86.14
18533;BME280;9396;51.510;11.934;2023-06-14T05:21:36;100626.56;;;14.67;86.35
18533;BME280;9396;51.510;11.934;2023-06-14T05:24:05;100622.59;;;15.17;85.02
18533;BME280;9396;51.510;11.934;2023-06-14T05:26:31;100620.63;;;15.33;84.16
18533;BME280;9396;51.510;11.934;2023-06-14T05:28:59;100619.03;;;15.24;83.63
18533;BME280;9396;51.510;11.934;2023-06-14T05:31:26;100625.13;;;15.41;84.21
18533;BME280;9396;51.510;11.934;2023-06-14T05:33:53;100637.25;;;15.29;84.31
18533;BME280;9396;51.510;11.934;2023-06-14T05:36:20;100632.22;;;15.56;84.27
18533;BME280;9396;51.510;11.934;2023-06-14T05:38:47;100635.16;;;15.16;84.52
18533;BME280;9396;51.510;11.934;2023-06-14T05:41:15;100632.41;;;15.24;85.24
18533;BME280;9396;51.510;11.934;2023-06-14T05:43:42;100647.25;;;15.43;84.78
18533;BME280;9396;51.510;11.934;2023-06-14T05:46:08;100652.25;;;15.46;84.86
18533;BME280;9396;51.510;11.934;2023-06-14T05:48:35;100640.38;;;16.00;83.93
18533;BME280;9396;51.510;11.934;2023-06-14T05:51:02;100636.25;;;16.56;82.33
18533;BME280;9396;51.510;11.934;2023-06-14T05:53:29;100647.41;;;17.03;80.48
18533;BME280;9396;51.510;11.934;2023-06-14T05:55:55;100646.47;;;17.10;80.05
18533;BME280;9396;51.510;11.934;2023-06-14T05:58:23;100643.69;;;17.25;79.85
18533;BME280;9396;51.510;11.934;2023-06-14T06:00:50;100641.38;;;17.58;79.37
18533;BME280;9396;51.510;11.934;2023-06-14T06:03:18;100641.22;;;17.66;78.39
18533;BME280;9396;51.510;11.934;2023-06-14T06:05:46;100643.19;;;17.78;78.51
18533;BME280;9396;51.510;11.934;2023-06-14T06:08:12;100653.59;;;18.09;77.72
18533;BME280;9396;51.510;11.934;2023-06-14T06:10:39;100650.91;;;18.37;77.81
18533;BME280;9396;51.510;11.934;2023-06-14T06:13:06;100645.22;;;18.93;76.58
18533;BME280;9396;51.510;11.934;2023-06-14T06:15:34;100653.53;;;19.05;74.13
18533;BME280;9396;51.510;11.934;2023-06-14T06:18:00;100651.25;;;19.02;73.87
18533;BME280;9396;51.510;11.934;2023-06-14T06:20:27;100649.25;;;19.23;74.64
18533;BME280;9396;51.510;11.934;2023-06-14T06:22:55;100652.75;;;19.17;73.99
18533;BME280;9396;51.510;11.934;2023-06-14T06:25:22;100650.75;;;19.39;72.09
18533;BME280;9396;51.510;11.934;2023-06-14T06:27:51;100652.66;;;19.71;71.79
18533;BME280;9396;51.510;11.934;2023-06-14T06:30:18;100653.91;;;19.56;71.67
18533;BME280;9396;51.510;11.934;2023-06-14T06:32:46;100659.31;;;19.56;71.88
18533;BME280;9396;51.510;11.934;2023-06-14T06:35:13;100652.66;;;19.52;72.94
18533;BME280;9396;51.510;11.934;2023-06-14T06:37:39;100659.94;;;19.90;70.61
18533;BME280;9396;51.510;11.934;2023-06-14T06:40:07;100648.25;;;20.55;69.91
18533;BME280;9396;51.510;11.934;2023-06-14T06:42:34;100642.34;;;21.60;68.39
18533;BME280;9396;51.510;11.934;2023-06-14T06:45:00;100648.91;;;21.70;66.19
18533;BME280;9396;51.510;11.934;2023-06-14T06:47:27;100640.97;;;22.67;64.07
18533;BME280;9396;51.510;11.934;2023-06-14T06:49:55;100650.75;;;22.68;63.49
18533;BME280;9396;51.510;11.934;2023-06-14T06:52:22;100651.34;;;22.88;62.37
18533;BME280;9396;51.510;11.934;2023-06-14T06:54:48;100655.88;;;23.42;62.19
18533;BME280;9396;51.510;11.934;2023-06-14T06:57:20;100653.72;;;23.32;61.92
18533;BME280;9396;51.510;11.934;2023-06-14T06:59:47;100656.69;;;22.95;63.06
18533;BME280;9396;51.510;11.934;2023-06-14T07:02:14;100653.06;;;24.01;60.70
18533;BME280;9396;51.510;11.934;2023-06-14T07:04:41;100663.41;;;22.92;62.14
18533;BME280;9396;51.510;11.934;2023-06-14T07:07:09;100661.28;;;23.72;62.04
18533;BME280;9396;51.510;11.934;2023-06-14T07:09:35;100645.78;;;24.13;60.99
18533;BME280;9396;51.510;11.934;2023-06-14T07:12:02;100663.66;;;23.39;61.71
18533;BME280;9396;51.510;11.934;2023-06-14T07:14:30;100651.31;;;24.30;60.20
18533;BME280;9396;51.510;11.934;2023-06-14T07:16:56;100652.41;;;25.03;58.57
18533;BME280;9396;51.510;11.934;2023-06-14T07:19:23;100649.22;;;24.95;58.84
18533;BME280;9396;51.510;11.934;2023-06-14T07:21:50;100665.84;;;25.50;57.17
18533;BME280;9396;51.510;11.934;2023-06-14T07:24:18;100658.59;;;25.27;58.07
18533;BME280;9396;51.510;11.934;2023-06-14T07:26:46;100653.41;;;25.54;57.80
18533;BME280;9396;51.510;11.934;2023-06-14T07:29:13;100652.63;;;25.86;56.29
18533;BME280;9396;51.510;11.934;2023-06-14T07:31:42;100665.13;;;24.05;57.98
18533;BME280;9396;51.510;11.934;2023-06-14T07:34:09;100665.97;;;24.75;58.14
18533;BME280;9396;51.510;11.934;2023-06-14T07:36:36;100662.06;;;24.60;57.49
18533;BME280;9396;51.510;11.934;2023-06-14T07:39:03;100655.81;;;24.36;57.88
18533;BME280;9396;51.510;11.934;2023-06-14T07:41:33;100651.53;;;24.63;57.73
18533;BME280;9396;51.510;11.934;2023-06-14T07:43:59;100655.81;;;24.36;57.42
18533;BME280;9396;51.510;11.934;2023-06-14T07:46:26;100646.81;;;24.70;57.44
18533;BME280;9396;51.510;11.934;2023-06-14T07:48:53;100651.28;;;24.65;56.51
18533;BME280;9396;51.510;11.934;2023-06-14T07:51:19;100653.19;;;24.64;56.64
18533;BME280;9396;51.510;11.934;2023-06-14T07:53:47;100652.41;;;25.03;57.14
18533;BME280;9396;51.510;11.934;2023-06-14T07:56:14;100651.88;;;25.18;55.64
18533;BME280;9396;51.510;11.934;2023-06-14T07:58:42;100665.59;;;24.83;56.52
18533;BME280;9396;51.510;11.934;2023-06-14T08:01:09;100646.94;;;25.03;55.56
18533;BME280;9396;51.510;11.934;2023-06-14T08:03:36;100663.41;;;25.36;54.83
18533;BME280;9396;51.510;11.934;2023-06-14T08:06:03;100669.72;;;24.86;55.82
18533;BME280;9396;51.510;11.934;2023-06-14T08:08:31;100662.78;;;25.06;54.88
18533;BME280;9396;51.510;11.934;2023-06-14T08:10:57;100674.84;;;24.82;56.22
18533;BME280;9396;51.510;11.934;2023-06-14T08:13:24;100663.97;;;24.36;57.14
18533;BME280;9396;51.510;11.934;2023-06-14T08:15:52;100669.50;;;24.64;56.37
18533;BME280;9396;51.510;11.934;2023-06-14T08:18:19;100663.59;;;24.44;56.00
18533;BME280;9396;51.510;11.934;2023-06-14T08:20:45;100667.44;;;25.06;55.57
18533;BME280;9396;51.510;11.934;2023-06-14T08:23:12;100668.03;;;24.96;56.09
18533;BME280;9396;51.510;11.934;2023-06-14T08:25:38;100664.31;;;24.74;56.59
18533;BME280;9396;51.510;11.934;2023-06-14T08:28:05;100667.88;;;24.40;56.74
18533;BME280;9396;51.510;11.934;2023-06-14T08:30:32;100672.06;;;23.90;57.00
18533;BME280;9396;51.510;11.934;2023-06-14T08:33:00;100661.81;;;24.73;57.12
18533;BME280;9396;51.510;11.934;2023-06-14T08:35:26;100653.91;;;24.71;57.18
18533;BME280;9396;51.510;11.934;2023-06-14T08:37:53;100656.38;;;24.61;56.62
18533;BME280;9396;51.510;11.934;2023-06-14T08:40:21;100659.00;;;24.56;56.79
18533;BME280;9396;51.510;11.934;2023-06-14T08:42:50;100646.28;;;24.96;56.06
18533;BME280;9396;51.510;11.934;2023-06-14T08:45:18;100655.63;;;23.96;56.65
18533;BME280;9396;51.510;11.934;2023-06-14T08:47:45;100645.66;;;24.20;57.98
18533;BME280;9396;51.510;11.934;2023-06-14T08:50:13;100649.53;;;24.47;56.86
18533;BME280;9396;51.510;11.934;2023-06-14T08:52:44;100659.09;;;23.51;56.96
18533;BME280;9396;51.510;11.934;2023-06-14T08:55:16;100654.97;;;24.47;57.51
18533;BME280;9396;51.510;11.934;2023-06-14T08:57:46;100650.00;;;24.44;56.39
18533;BME280;9396;51.510;11.934;2023-06-14T09:00:14;100655.22;;;24.34;55.91
18533;BME280;9396;51.510;11.934;2023-06-14T09:02:41;100651.50;;;24.86;56.49
18533;BME280;9396;51.510;11.934;2023-06-14T09:05:09;100659.44;;;24.88;54.41
18533;BME280;9396;51.510;11.934;2023-06-14T09:07:37;100668.81;;;24.57;55.90
18533;BME280;9396;51.510;11.934;2023-06-14T09:10:08;100654.16;;;24.58;56.21
18533;BME280;9396;51.510;11.934;2023-06-14T09:12:35;100662.78;;;25.06;56.55
18533;BME280;9396;51.510;11.934;2023-06-14T09:15:02;100655.84;;;24.99;54.67
18533;BME280;9396;51.510;11.934;2023-06-14T09:17:32;100676.25;;;24.50;55.14
18533;BME280;9396;51.510;11.934;2023-06-14T09:20:00;100666.28;;;23.98;57.04
18533;BME280;9396;51.510;11.934;2023-06-14T09:22:29;100666.94;;;24.11;56.01
18533;BME280;9396;51.510;11.934;2023-06-14T09:24:57;100673.09;;;23.77;56.25
18533;BME280;9396;51.510;11.934;2023-06-14T09:27:25;100670.56;;;24.52;57.83
18533;BME280;9396;51.510;11.934;2023-06-14T09:29:51;100665.41;;;24.38;55.80
18533;BME280;9396;51.510;11.934;2023-06-14T09:32:18;100676.41;;;24.20;56.62
18533;BME280;9396;51.510;11.934;2023-06-14T09:34:46;100665.75;;;24.42;55.96
18533;BME280;9396;51.510;11.934;2023-06-14T09:37:12;100670.00;;;24.38;55.53
18533;BME280;9396;51.510;11.934;2023-06-14T09:39:49;100658.41;;;24.54;56.17
18533;BME280;9396;51.510;11.934;2023-06-14T09:42:18;100660.78;;;24.51;55.72
18533;BME280;9396;51.510;11.934;2023-06-14T09:44:47;100665.16;;;24.17;54.67
18533;BME280;9396;51.510;11.934;2023-06-14T09:47:15;100660.47;;;23.83;56.80
18533;BME280;9396;51.510;11.934;2023-06-14T09:49:42;100660.44;;;23.12;57.26
18533;BME280;9396;51.510;11.934;2023-06-14T09:52:10;100658.63;;;23.54;57.13
18533;BME280;9396;51.510;11.934;2023-06-14T09:54:41;100661.81;;;23.51;58.50
18533;BME280;9396;51.510;11.934;2023-06-14T09:57:09;100667.72;;;23.48;56.82
18533;BME280;9396;51.510;11.934;2023-06-14T09:59:40;100654.69;;;23.79;57.09
18533;BME280;9396;51.510;11.934;2023-06-14T10:02:12;100666.38;;;23.80;57.32
18533;BME280;9396;51.510;11.934;2023-06-14T10:04:45;100656.28;;;24.10;56.51
18533;BME280;9396;51.510;11.934;2023-06-14T10:07:14;100661.03;;;24.03;57.05
18533;BME280;9396;51.510;11.934;2023-06-14T10:09:42;100671.94;;;23.44;56.71
18533;BME280;9396;51.510;11.934;2023-06-14T10:12:14;100658.59;;;23.42;56.50
18533;BME280;9396;51.510;11.934;2023-06-14T10:14:48;100669.41;;;23.30;56.72
18533;BME280;9396;51.510;11.934;2023-06-14T10:17:22;100663.66;;;23.20;57.89
18533;BME280;9396;51.510;11.934;2023-06-14T10:19:55;100663.31;;;23.17;56.98
18533;BME280;9396;51.510;11.934;2023-06-14T10:22:29;100663.56;;;22.97;56.98
18533;BME280;9396;51.510;11.934;2023-06-14T10:24:57;100661.69;;;22.80;58.29
18533;BME280;9396;51.510;11.934;2023-06-14T10:27:23;100662.91;;;22.41;59.02
18533;BME280;9396;51.510;11.934;2023-06-14T10:30:06;100655.50;;;22.91;59.58
18533;BME280;9396;51.510;11.934;2023-06-14T10:32:33;100654.19;;;23.11;58.02
18533;BME280;9396;51.510;11.934;2023-06-14T10:35:01;100654.78;;;23.13;58.00
18533;BME280;9396;51.510;11.934;2023-06-14T10:37:30;100646.72;;;22.53;58.39
18533;BME280;9396;51.510;11.934;2023-06-14T10:39:57;100657.31;;;22.61;59.20
18533;BME280;9396;51.510;11.934;2023-06-14T10:42:28;100651.31;;;22.59;59.32
18533;BME280;9396;51.510;11.934;2023-06-14T10:44:58;100639.75;;;22.81;59.03
18533;BME280;9396;51.510;11.934;2023-06-14T10:47:30;100644.34;;;22.20;59.62
18533;BME280;9396;51.510;11.934;2023-06-14T10:50:08;100650.19;;;22.42;59.89
18533;BME280;9396;51.510;11.934;2023-06-14T10:52:38;100644.31;;;22.26;60.65
18533;BME280;9396;51.510;11.934;2023-06-14T10:55:10;100647.56;;;22.35;60.59
18533;BME280;9396;51.510;11.934;2023-06-14T10:57:39;100651.09;;;21.93;61.05
18533;BME280;9396;51.510;11.934;2023-06-14T11:00:07;100651.28;;;22.16;61.59
18533;BME280;9396;51.510;11.934;2023-06-14T11:06:14;100650.88;;;22.37;61.73
18533;BME280;9396;51.510;11.934;2023-06-14T11:09:09;100628.00;;;22.69;60.61
18533;BME280;9396;51.510;11.934;2023-06-14T11:11:42;100607.78;;;22.47;60.32
18533;BME280;9396;51.510;11.934;2023-06-14T11:14:10;100635.41;;;22.62;61.13
18533;BME280;9396;51.510;11.934;2023-06-14T11:16:37;100566.28;;;22.47;60.40
18533;BME280;9396;51.510;11.934;2023-06-14T11:19:03;100639.00;;;22.74;60.90
18533;BME280;9396;51.510;11.934;2023-06-14T11:21:33;100643.00;;;22.29;61.27
18533;BME280;9396;51.510;11.934;2023-06-14T11:23:59;100642.31;;;22.15;61.89
18533;BME280;9396;51.510;11.934;2023-06-14T11:26:27;100647.97;;;22.14;62.42
18533;BME280;9396;51.510;11.934;2023-06-14T11:28:57;100640.00;;;22.19;63.32
18533;BME280;9396;51.510;11.934;2023-06-14T11:31:25;100642.84;;;22.24;62.36
18533;BME280;9396;51.510;11.934;2023-06-14T11:33:53;100627.66;;;22.41;62.64
18533;BME280;9396;51.510;11.934;2023-06-14T11:36:20;100639.34;;;22.42;61.80
18533;BME280;9396;51.510;11.934;2023-06-14T11:38:49;100630.28;;;22.29;62.58
18533;BME280;9396;51.510;11.934;2023-06-14T11:41:15;100624.38;;;22.57;62.62
18533;BME280;9396;51.510;11.934;2023-06-14T11:43:42;100610.28;;;22.67;62.21
18533;BME280;9396;51.510;11.934;2023-06-14T11:46:15;100600.09;;;22.80;61.09
18533;BME280;9396;51.510;11.934;2023-06-14T11:48:43;100616.44;;;22.92;61.33
18533;BME280;9396;51.510;11.934;2023-06-14T11:51:10;100618.69;;;22.95;61.46
18533;BME280;9396;51.510;11.934;2023-06-14T11:53:37;100613.72;;;22.62;61.55
18533;BME280;9396;51.510;11.934;2023-06-14T11:56:05;100605.81;;;22.54;62.02
18533;BME280;9396;51.510;11.934;2023-06-14T11:58:32;100625.06;;;22.71;61.83
18533;BME280;9396;51.510;11.934;2023-06-14T12:00:59;100613.66;;;22.80;62.39
18533;BME280;9396;51.510;11.934;2023-06-14T12:03:26;100613.59;;;22.87;62.28
18533;BME280;9396;51.510;11.934;2023-06-14T12:06:04;100579.63;;;22.48;61.48
18533;BME280;9396;51.510;11.934;2023-06-14T12:08:33;100611.31;;;22.84;61.91
18533;BME280;9396;51.510;11.934;2023-06-14T12:11:05;100613.72;;;22.62;61.92
18533;BME280;9396;51.510;11.934;2023-06-14T12:13:34;100603.38;;;22.71;62.31
18533;BME280;9396;51.510;11.934;2023-06-14T12:16:01;100609.31;;;22.79;62.48
18533;BME280;9396;51.510;11.934;2023-06-14T12:18:34;100605.06;;;22.47;62.34
18533;BME280;9396;51.510;11.934;2023-06-14T12:21:03;100609.66;;;22.47;63.12
18533;BME280;9396;51.510;11.934;2023-06-14T12:23:45;100605.88;;;22.11;63.31
18533;BME280;9396;51.510;11.934;2023-06-14T12:26:14;100613.34;;;22.16;62.97
18533;BME280;9396;51.510;11.934;2023-06-14T12:28:42;100600.22;;;22.13;62.52
18533;BME280;9396;51.510;11.934;2023-06-14T12:31:09;100609.13;;;22.20;63.00
18533;BME280;9396;51.510;11.934;2023-06-14T12:33:36;100605.59;;;22.19;62.92
18533;BME280;9396;51.510;11.934;2023-06-14T12:36:04;100608.22;;;22.26;63.14
18533;BME280;9396;51.510;11.934;2023-06-14T12:38:31;100608.34;;;22.13;63.45
18533;BME280;9396;51.510;11.934;2023-06-14T12:40:57;100610.19;;;22.37;63.46
18533;BME280;9396;51.510;11.934;2023-06-14T12:43:25;100615.16;;;22.40;63.70
18533;BME280;9396;51.510;11.934;2023-06-14T12:45:52;100613.34;;;22.52;63.29
18533;BME280;9396;51.510;11.934;2023-06-14T12:48:19;100610.34;;;22.42;63.06
18533;BME280;9396;51.510;11.934;2023-06-14T12:50:45;100609.09;;;22.63;63.47
18533;BME280;9396;51.510;11.934;2023-06-14T12:53:12;100610.00;;;22.75;63.43
18533;BME280;9396;51.510;11.934;2023-06-14T12:55:39;100619.75;;;22.64;62.65
18533;BME280;9396;51.510;11.934;2023-06-14T12:58:06;100611.66;;;22.76;62.57